sensor_id;sensor_type;location;lat;lon;timestamp;P1;durP1;ratioP1;P2;durP2;ratioP2
20970;SDS011;10644;48.834;10.088;2023-07-29T00:01:49;3.03;;;1.50;;
20970;SDS011;10644;48.834;10.088;2023-07-29T00:04:16;6.13;;;2.20;;
20970;SDS011;10644;48.834;10.088;2023-07-29T00:06:41;4.00;;;2.20;;
20970;SDS011;10644;48.834;10.088;2023-07-29T00:09:09;3.50;;;2.20;;
20970;SDS011;10644;48.834;10.088;2023-07-29T00:11:37;5.30;;;2.07;;
20970;SDS011;10644;48.834;10.088;2023-07-29T00:14:03;4.23;;;2.50;;
20970;SDS011;10644;48.834;10.088;2023-07-29T00:16:28;2.50;;;1.90;;
20970;SDS011;10644;48.834;10.088;2023-07-29T00:18:56;7.27;;;2.60;;
20970;SDS011;10644;48.834;10.088;2023-07-29T00:21:21;4.90;;;2.30;;
20970;SDS011;10644;48.834;10.088;2023-07-29T00:23:49;4.97;;;2.27;;
20970;SDS011;10644;48.834;10.088;2023-07-29T00:26:14;3.63;;;1.93;;
20970;SDS011;10644;48.834;10.088;2023-07-29T00:28:42;5.50;;;2.10;;
20970;SDS011;10644;48.834;10.088;2023-07-29T00:31:07;3.83;;;2.10;;
20970;SDS011;10644;48.834;10.088;2023-07-29T00:33:32;13.10;;;3.03;;
20970;SDS011;10644;48.834;10.088;2023-07-29T00:36:00;2.00;;;1.40;;
20970;SDS011;10644;48.834;10.088;2023-07-29T00:38:27;12.10;;;2.57;;
20970;SDS011;10644;48.834;10.088;2023-07-29T00:40:53;16.27;;;2.87;;
20970;SDS011;10644;48.834;10.088;2023-07-29T00:43:18;2.27;;;1.43;;
20970;SDS011;10644;48.834;10.088;2023-07-29T00:45:46;3.33;;;2.23;;
20970;SDS011;10644;48.834;10.088;2023-07-29T00:48:12;4.70;;;2.10;;
20970;SDS011;10644;48.834;10.088;2023-07-29T00:50:38;3.73;;;1.40;;
20970;SDS011;10644;48.834;10.088;2023-07-29T00:53:06;2.23;;;1.50;;
20970;SDS011;10644;48.834;10.088;2023-07-29T00:55:31;12.23;;;2.80;;
20970;SDS011;10644;48.834;10.088;2023-07-29T00:57:57;5.17;;;2.40;;
20970;SDS011;10644;48.834;10.088;2023-07-29T01:00:22;9.03;;;2.17;;
20970;SDS011;10644;48.834;10.088;2023-07-29T01:02:50;3.17;;;1.80;;
20970;SDS011;10644;48.834;10.088;2023-07-29T01:05:19;6.13;;;2.37;;
20970;SDS011;10644;48.834;10.088;2023-07-29T01:07:47;5.67;;;2.70;;
20970;SDS011;10644;48.834;10.088;2023-07-29T01:13:16;10.10;;;3.40;;
20970;SDS011;10644;48.834;10.088;2023-07-29T01:15:50;3.27;;;2.17;;
20970;SDS011;10644;48.834;10.088;2023-07-29T01:18:22;9.10;;;2.73;;
20970;SDS011;10644;48.834;10.088;2023-07-29T01:20:59;2.73;;;1.43;;
20970;SDS011;10644;48.834;10.088;2023-07-29T01:23:31;3.00;;;1.70;;
20970;SDS011;10644;48.834;10.088;2023-07-29T01:25:57;3.40;;;1.80;;
20970;SDS011;10644;48.834;10.088;2023-07-29T01:28:22;6.00;;;2.00;;
20970;SDS011;10644;48.834;10.088;2023-07-29T01:30:49;12.47;;;2.77;;
20970;SDS011;10644;48.834;10.088;2023-07-29T01:33:20;6.77;;;3.77;;
20970;SDS011;10644;48.834;10.088;2023-07-29T01:35:52;8.83;;;3.37;;
20970;SDS011;10644;48.834;10.088;2023-07-29T01:38:30;5.27;;;2.60;;
20970;SDS011;10644;48.834;10.088;2023-07-29T01:41:00;12.53;;;3.00;;
20970;SDS011;10644;48.834;10.088;2023-07-29T01:43:27;4.60;;;2.40;;
20970;SDS011;10644;48.834;10.088;2023-07-29T01:45:54;5.50;;;2.37;;
20970;SDS011;10644;48.834;10.088;2023-07-29T01:48:19;5.50;;;2.13;;
20970;SDS011;10644;48.834;10.088;2023-07-29T01:50:44;3.43;;;2.30;;
20970;SDS011;10644;48.834;10.088;2023-07-29T01:53:10;4.40;;;2.23;;
20970;SDS011;10644;48.834;10.088;2023-07-29T01:55:35;7.27;;;1.87;;
20970;SDS011;10644;48.834;10.088;2023-07-29T01:58:00;3.73;;;1.87;;
20970;SDS011;10644;48.834;10.088;2023-07-29T02:00:26;5.57;;;1.83;;
20970;SDS011;10644;48.834;10.088;2023-07-29T02:02:51;6.10;;;2.03;;
20970;SDS011;10644;48.834;10.088;2023-07-29T02:05:16;5.60;;;2.13;;
20970;SDS011;10644;48.834;10.088;2023-07-29T02:07:42;7.20;;;2.43;;
20970;SDS011;10644;48.834;10.088;2023-07-29T02:10:07;7.10;;;2.30;;
20970;SDS011;10644;48.834;10.088;2023-07-29T02:12:33;4.23;;;2.20;;
20970;SDS011;10644;48.834;10.088;2023-07-29T02:14:59;3.00;;;1.43;;
20970;SDS011;10644;48.834;10.088;2023-07-29T02:17:24;3.47;;;1.70;;
20970;SDS011;10644;48.834;10.088;2023-07-29T02:19:51;3.30;;;1.97;;
20970;SDS011;10644;48.834;10.088;2023-07-29T02:22:16;4.80;;;1.80;;
20970;SDS011;10644;48.834;10.088;2023-07-29T02:24:45;1.63;;;1.43;;
20970;SDS011;10644;48.834;10.088;2023-07-29T02:27:10;3.27;;;2.33;;
20970;SDS011;10644;48.834;10.088;2023-07-29T02:29:36;3.27;;;1.90;;
20970;SDS011;10644;48.834;10.088;2023-07-29T02:32:04;7.27;;;2.30;;
20970;SDS011;10644;48.834;10.088;2023-07-29T02:34:29;7.87;;;2.70;;
20970;SDS011;10644;48.834;10.088;2023-07-29T02:36:55;7.10;;;2.33;;
20970;SDS011;10644;48.834;10.088;2023-07-29T02:39:21;6.80;;;2.47;;
20970;SDS011;10644;48.834;10.088;2023-07-29T02:41:46;6.20;;;2.43;;
20970;SDS011;10644;48.834;10.088;2023-07-29T02:44:12;6.13;;;2.27;;
20970;SDS011;10644;48.834;10.088;2023-07-29T02:46:37;4.30;;;1.73;;
20970;SDS011;10644;48.834;10.088;2023-07-29T02:49:03;7.13;;;2.50;;
20970;SDS011;10644;48.834;10.088;2023-07-29T02:51:31;9.90;;;2.80;;
20970;SDS011;10644;48.834;10.088;2023-07-29T02:53:57;7.80;;;2.33;;
20970;SDS011;10644;48.834;10.088;2023-07-29T02:56:22;5.77;;;1.73;;
20970;SDS011;10644;48.834;10.088;2023-07-29T02:58:48;4.50;;;1.70;;
20970;SDS011;10644;48.834;10.088;2023-07-29T03:01:17;4.67;;;2.00;;
20970;SDS011;10644;48.834;10.088;2023-07-29T03:03:43;9.03;;;2.53;;
20970;SDS011;10644;48.834;10.088;2023-07-29T03:06:09;2.40;;;1.50;;
20970;SDS011;10644;48.834;10.088;2023-07-29T03:08:36;10.67;;;2.80;;
20970;SDS011;10644;48.834;10.088;2023-07-29T03:11:12;3.50;;;1.93;;
20970;SDS011;10644;48.834;10.088;2023-07-29T03:13:39;6.30;;;2.23;;
20970;SDS011;10644;48.834;10.088;2023-07-29T03:16:14;3.33;;;2.40;;
20970;SDS011;10644;48.834;10.088;2023-07-29T03:18:43;16.40;;;3.90;;
20970;SDS011;10644;48.834;10.088;2023-07-29T03:21:10;6.30;;;2.37;;
20970;SDS011;10644;48.834;10.088;2023-07-29T03:23:36;17.07;;;3.57;;
20970;SDS011;10644;48.834;10.088;2023-07-29T03:26:06;5.00;;;2.20;;
20970;SDS011;10644;48.834;10.088;2023-07-29T03:28:36;9.47;;;3.23;;
20970;SDS011;10644;48.834;10.088;2023-07-29T03:31:03;4.27;;;2.30;;
20970;SDS011;10644;48.834;10.088;2023-07-29T03:33:29;9.27;;;2.60;;
20970;SDS011;10644;48.834;10.088;2023-07-29T03:35:54;6.70;;;2.50;;
20970;SDS011;10644;48.834;10.088;2023-07-29T03:38:20;9.87;;;2.67;;
20970;SDS011;10644;48.834;10.088;2023-07-29T03:40:46;17.33;;;4.30;;
20970;SDS011;10644;48.834;10.088;2023-07-29T03:43:11;9.33;;;3.20;;
20970;SDS011;10644;48.834;10.088;2023-07-29T03:45:37;6.17;;;2.30;;
20970;SDS011;10644;48.834;10.088;2023-07-29T03:48:03;17.73;;;4.53;;
20970;SDS011;10644;48.834;10.088;2023-07-29T03:50:29;20.73;;;4.53;;
20970;SDS011;10644;48.834;10.088;2023-07-29T03:52:55;23.67;;;4.63;;
20970;SDS011;10644;48.834;10.088;2023-07-29T03:55:21;30.47;;;5.33;;
20970;SDS011;10644;48.834;10.088;2023-07-29T03:57:46;14.53;;;3.47;;
20970;SDS011;10644;48.834;10.088;2023-07-29T04:00:12;25.93;;;5.40;;
20970;SDS011;10644;48.834;10.088;2023-07-29T04:02:38;28.50;;;5.30;;
20970;SDS011;10644;48.834;10.088;2023-07-29T04:05:04;18.43;;;4.10;;
20970;SDS011;10644;48.834;10.088;2023-07-29T04:07:30;9.53;;;3.27;;
20970;SDS011;10644;48.834;10.088;2023-07-29T04:09:58;21.37;;;4.90;;
20970;SDS011;10644;48.834;10.088;2023-07-29T04:12:23;20.97;;;5.23;;
20970;SDS011;10644;48.834;10.088;2023-07-29T04:14:49;19.30;;;5.33;;
20970;SDS011;10644;48.834;10.088;2023-07-29T04:17:14;11.00;;;4.40;;
20970;SDS011;10644;48.834;10.088;2023-07-29T04:19:40;23.50;;;6.57;;
20970;SDS011;10644;48.834;10.088;2023-07-29T04:22:08;12.53;;;5.10;;
20970;SDS011;10644;48.834;10.088;2023-07-29T04:24:33;11.03;;;3.87;;
20970;SDS011;10644;48.834;10.088;2023-07-29T04:26:58;13.63;;;4.80;;
20970;SDS011;10644;48.834;10.088;2023-07-29T04:29:24;15.80;;;4.77;;
20970;SDS011;10644;48.834;10.088;2023-07-29T04:31:51;13.13;;;4.03;;
20970;SDS011;10644;48.834;10.088;2023-07-29T04:34:19;23.27;;;5.17;;
20970;SDS011;10644;48.834;10.088;2023-07-29T04:36:45;12.03;;;3.83;;
20970;SDS011;10644;48.834;10.088;2023-07-29T04:39:11;21.10;;;5.90;;
20970;SDS011;10644;48.834;10.088;2023-07-29T04:41:36;14.67;;;3.90;;
20970;SDS011;10644;48.834;10.088;2023-07-29T04:44:01;12.60;;;4.10;;
20970;SDS011;10644;48.834;10.088;2023-07-29T04:46:27;17.00;;;4.33;;
20970;SDS011;10644;48.834;10.088;2023-07-29T04:48:52;16.40;;;4.77;;
20970;SDS011;10644;48.834;10.088;2023-07-29T04:51:18;11.97;;;3.70;;
20970;SDS011;10644;48.834;10.088;2023-07-29T04:53:45;9.60;;;3.70;;
20970;SDS011;10644;48.834;10.088;2023-07-29T04:56:11;11.13;;;3.77;;
20970;SDS011;10644;48.834;10.088;2023-07-29T04:58:36;23.30;;;6.10;;
20970;SDS011;10644;48.834;10.088;2023-07-29T05:01:02;14.23;;;5.13;;
20970;SDS011;10644;48.834;10.088;2023-07-29T05:03:30;17.50;;;5.53;;
20970;SDS011;10644;48.834;10.088;2023-07-29T05:05:56;12.47;;;4.30;;
20970;SDS011;10644;48.834;10.088;2023-07-29T05:08:22;14.67;;;4.93;;
20970;SDS011;10644;48.834;10.088;2023-07-29T05:10:48;12.93;;;5.20;;
20970;SDS011;10644;48.834;10.088;2023-07-29T05:13:15;13.77;;;4.10;;
20970;SDS011;10644;48.834;10.088;2023-07-29T05:15:40;14.60;;;4.10;;
20970;SDS011;10644;48.834;10.088;2023-07-29T05:18:06;15.27;;;5.17;;
20970;SDS011;10644;48.834;10.088;2023-07-29T05:20:31;14.97;;;5.07;;
20970;SDS011;10644;48.834;10.088;2023-07-29T05:22:57;12.63;;;4.53;;
20970;SDS011;10644;48.834;10.088;2023-07-29T05:25:22;17.63;;;4.50;;
20970;SDS011;10644;48.834;10.088;2023-07-29T05:27:49;12.90;;;3.80;;
20970;SDS011;10644;48.834;10.088;2023-07-29T05:30:15;19.50;;;5.33;;
20970;SDS011;10644;48.834;10.088;2023-07-29T05:32:40;16.27;;;5.20;;
20970;SDS011;10644;48.834;10.088;2023-07-29T05:35:08;22.93;;;6.53;;
20970;SDS011;10644;48.834;10.088;2023-07-29T05:37:34;18.73;;;5.57;;
20970;SDS011;10644;48.834;10.088;2023-07-29T05:40:00;12.47;;;4.30;;
20970;SDS011;10644;48.834;10.088;2023-07-29T05:42:25;15.97;;;4.90;;
20970;SDS011;10644;48.834;10.088;2023-07-29T05:44:51;13.37;;;4.10;;
20970;SDS011;10644;48.834;10.088;2023-07-29T05:47:16;18.50;;;4.20;;
20970;SDS011;10644;48.834;10.088;2023-07-29T05:49:41;13.30;;;3.97;;
20970;SDS011;10644;48.834;10.088;2023-07-29T05:52:09;8.83;;;3.03;;
20970;SDS011;10644;48.834;10.088;2023-07-29T05:54:34;10.90;;;4.37;;
20970;SDS011;10644;48.834;10.088;2023-07-29T05:57:00;17.17;;;4.60;;
20970;SDS011;10644;48.834;10.088;2023-07-29T05:59:25;11.70;;;4.20;;
20970;SDS011;10644;48.834;10.088;2023-07-29T06:01:54;18.33;;;5.00;;
20970;SDS011;10644;48.834;10.088;2023-07-29T06:04:19;12.20;;;4.30;;
20970;SDS011;10644;48.834;10.088;2023-07-29T06:06:47;11.47;;;4.40;;
20970;SDS011;10644;48.834;10.088;2023-07-29T06:09:13;17.43;;;4.77;;
20970;SDS011;10644;48.834;10.088;2023-07-29T06:11:38;14.23;;;4.70;;
20970;SDS011;10644;48.834;10.088;2023-07-29T06:14:04;15.83;;;4.80;;
20970;SDS011;10644;48.834;10.088;2023-07-29T06:16:29;17.00;;;4.80;;
20970;SDS011;10644;48.834;10.088;2023-07-29T06:18:54;23.43;;;5.07;;
20970;SDS011;10644;48.834;10.088;2023-07-29T06:21:19;15.73;;;4.43;;
20970;SDS011;10644;48.834;10.088;2023-07-29T06:23:45;13.30;;;4.43;;
20970;SDS011;10644;48.834;10.088;2023-07-29T06:26:11;13.00;;;4.10;;
20970;SDS011;10644;48.834;10.088;2023-07-29T06:28:36;15.47;;;4.90;;
20970;SDS011;10644;48.834;10.088;2023-07-29T06:31:02;15.17;;;5.07;;
20970;SDS011;10644;48.834;10.088;2023-07-29T06:33:27;16.20;;;5.57;;
20970;SDS011;10644;48.834;10.088;2023-07-29T06:35:55;12.20;;;4.77;;
20970;SDS011;10644;48.834;10.088;2023-07-29T06:38:20;21.50;;;5.67;;
20970;SDS011;10644;48.834;10.088;2023-07-29T06:40:47;14.87;;;5.17;;
20970;SDS011;10644;48.834;10.088;2023-07-29T06:43:13;12.70;;;4.77;;
20970;SDS011;10644;48.834;10.088;2023-07-29T06:45:38;13.63;;;4.70;;
20970;SDS011;10644;48.834;10.088;2023-07-29T06:48:04;14.50;;;5.20;;
20970;SDS011;10644;48.834;10.088;2023-07-29T06:50:29;12.57;;;4.70;;
20970;SDS011;10644;48.834;10.088;2023-07-29T06:52:54;17.30;;;5.23;;
20970;SDS011;10644;48.834;10.088;2023-07-29T06:55:20;13.30;;;5.03;;
20970;SDS011;10644;48.834;10.088;2023-07-29T06:57:47;21.13;;;6.70;;
20970;SDS011;10644;48.834;10.088;2023-07-29T07:00:13;24.73;;;6.17;;
20970;SDS011;10644;48.834;10.088;2023-07-29T07:02:38;14.17;;;5.30;;
20970;SDS011;10644;48.834;10.088;2023-07-29T07:05:06;14.80;;;5.30;;
20970;SDS011;10644;48.834;10.088;2023-07-29T07:07:32;11.20;;;4.10;;
20970;SDS011;10644;48.834;10.088;2023-07-29T07:09:57;10.57;;;3.20;;
20970;SDS011;10644;48.834;10.088;2023-07-29T07:12:23;12.63;;;3.83;;
20970;SDS011;10644;48.834;10.088;2023-07-29T07:14:50;10.60;;;3.83;;
20970;SDS011;10644;48.834;10.088;2023-07-29T07:17:15;8.70;;;3.77;;
20970;SDS011;10644;48.834;10.088;2023-07-29T07:19:41;8.03;;;3.30;;
20970;SDS011;10644;48.834;10.088;2023-07-29T07:22:06;10.33;;;3.73;;
20970;SDS011;10644;48.834;10.088;2023-07-29T07:24:31;10.53;;;3.93;;
20970;SDS011;10644;48.834;10.088;2023-07-29T07:26:57;13.90;;;5.73;;
20970;SDS011;10644;48.834;10.088;2023-07-29T07:29:23;12.57;;;5.37;;
20970;SDS011;10644;48.834;10.088;2023-07-29T07:31:52;6.93;;;3.30;;
20970;SDS011;10644;48.834;10.088;2023-07-29T07:34:20;8.23;;;3.90;;
20970;SDS011;10644;48.834;10.088;2023-07-29T07:36:46;8.87;;;4.20;;
20970;SDS011;10644;48.834;10.088;2023-07-29T07:39:12;12.03;;;4.70;;
20970;SDS011;10644;48.834;10.088;2023-07-29T07:41:37;8.30;;;4.30;;
20970;SDS011;10644;48.834;10.088;2023-07-29T07:44:02;10.90;;;4.23;;
20970;SDS011;10644;48.834;10.088;2023-07-29T07:46:28;7.20;;;3.80;;
20970;SDS011;10644;48.834;10.088;2023-07-29T07:48:54;6.40;;;3.13;;
20970;SDS011;10644;48.834;10.088;2023-07-29T07:51:20;7.33;;;4.07;;
20970;SDS011;10644;48.834;10.088;2023-07-29T07:53:45;7.20;;;3.60;;
20970;SDS011;10644;48.834;10.088;2023-07-29T07:56:11;8.50;;;4.07;;
20970;SDS011;10644;48.834;10.088;2023-07-29T07:58:36;9.57;;;4.23;;
20970;SDS011;10644;48.834;10.088;2023-07-29T08:01:05;9.20;;;3.90;;
20970;SDS011;10644;48.834;10.088;2023-07-29T08:03:32;7.47;;;3.47;;
20970;SDS011;10644;48.834;10.088;2023-07-29T08:05:57;12.57;;;4.57;;
20970;SDS011;10644;48.834;10.088;2023-07-29T08:08:23;7.10;;;3.30;;
20970;SDS011;10644;48.834;10.088;2023-07-29T08:10:49;7.17;;;3.27;;
20970;SDS011;10644;48.834;10.088;2023-07-29T08:13:14;6.93;;;3.03;;
20970;SDS011;10644;48.834;10.088;2023-07-29T08:15:40;6.27;;;2.73;;
20970;SDS011;10644;48.834;10.088;2023-07-29T08:18:08;6.23;;;2.20;;
20970;SDS011;10644;48.834;10.088;2023-07-29T08:20:33;6.63;;;2.90;;
20970;SDS011;10644;48.834;10.088;2023-07-29T08:23:01;6.27;;;2.30;;
20970;SDS011;10644;48.834;10.088;2023-07-29T08:25:28;8.53;;;2.90;;
20970;SDS011;10644;48.834;10.088;2023-07-29T08:27:53;7.33;;;2.40;;
20970;SDS011;10644;48.834;10.088;2023-07-29T08:30:19;11.17;;;2.60;;
20970;SDS011;10644;48.834;10.088;2023-07-29T08:32:44;12.67;;;3.07;;
20970;SDS011;10644;48.834;10.088;2023-07-29T08:35:12;12.83;;;2.73;;
20970;SDS011;10644;48.834;10.088;2023-07-29T08:37:39;12.40;;;3.20;;
20970;SDS011;10644;48.834;10.088;2023-07-29T08:40:05;7.93;;;2.53;;
20970;SDS011;10644;48.834;10.088;2023-07-29T08:42:31;6.47;;;1.87;;
20970;SDS011;10644;48.834;10.088;2023-07-29T08:44:59;12.10;;;3.00;;
20970;SDS011;10644;48.834;10.088;2023-07-29T08:47:31;12.33;;;3.07;;
20970;SDS011;10644;48.834;10.088;2023-07-29T08:50:01;12.57;;;2.83;;
20970;SDS011;10644;48.834;10.088;2023-07-29T08:52:28;13.37;;;2.97;;
20970;SDS011;10644;48.834;10.088;2023-07-29T08:55:00;10.00;;;2.37;;
20970;SDS011;10644;48.834;10.088;2023-07-29T08:57:25;9.03;;;2.80;;
20970;SDS011;10644;48.834;10.088;2023-07-29T08:59:51;7.20;;;2.00;;
20970;SDS011;10644;48.834;10.088;2023-07-29T09:02:17;9.27;;;2.70;;
20970;SDS011;10644;48.834;10.088;2023-07-29T09:04:43;7.27;;;2.30;;
20970;SDS011;10644;48.834;10.088;2023-07-29T09:07:08;5.40;;;2.23;;
20970;SDS011;10644;48.834;10.088;2023-07-29T09:09:37;7.80;;;2.27;;
20970;SDS011;10644;48.834;10.088;2023-07-29T09:12:03;9.03;;;2.53;;
20970;SDS011;10644;48.834;10.088;2023-07-29T09:14:28;5.80;;;1.87;;
20970;SDS011;10644;48.834;10.088;2023-07-29T09:16:54;10.73;;;3.40;;
20970;SDS011;10644;48.834;10.088;2023-07-29T09:19:19;7.33;;;2.73;;
20970;SDS011;10644;48.834;10.088;2023-07-29T09:21:45;5.07;;;1.87;;
20970;SDS011;10644;48.834;10.088;2023-07-29T09:24:12;11.13;;;3.47;;
20970;SDS011;10644;48.834;10.088;2023-07-29T09:26:40;5.67;;;2.10;;
20970;SDS011;10644;48.834;10.088;2023-07-29T09:29:14;4.43;;;1.90;;
20970;SDS011;10644;48.834;10.088;2023-07-29T09:31:39;16.30;;;4.67;;
20970;SDS011;10644;48.834;10.088;2023-07-29T09:34:05;9.20;;;3.00;;
20970;SDS011;10644;48.834;10.088;2023-07-29T09:36:31;7.47;;;2.37;;
20970;SDS011;10644;48.834;10.088;2023-07-29T09:38:57;5.77;;;2.13;;
20970;SDS011;10644;48.834;10.088;2023-07-29T09:41:26;8.10;;;3.23;;
20970;SDS011;10644;48.834;10.088;2023-07-29T09:43:56;9.90;;;3.30;;
20970;SDS011;10644;48.834;10.088;2023-07-29T09:46:31;5.03;;;1.90;;
20970;SDS011;10644;48.834;10.088;2023-07-29T09:48:58;7.30;;;2.70;;
20970;SDS011;10644;48.834;10.088;2023-07-29T09:51:23;9.40;;;3.30;;
20970;SDS011;10644;48.834;10.088;2023-07-29T09:53:50;13.63;;;3.13;;
20970;SDS011;10644;48.834;10.088;2023-07-29T09:56:16;11.57;;;3.00;;
20970;SDS011;10644;48.834;10.088;2023-07-29T09:58:45;17.13;;;3.83;;
20970;SDS011;10644;48.834;10.088;2023-07-29T10:01:11;13.67;;;3.03;;
20970;SDS011;10644;48.834;10.088;2023-07-29T10:03:37;23.13;;;3.83;;
20970;SDS011;10644;48.834;10.088;2023-07-29T10:06:03;9.10;;;2.97;;
20970;SDS011;10644;48.834;10.088;2023-07-29T10:08:30;13.93;;;3.27;;
20970;SDS011;10644;48.834;10.088;2023-07-29T10:10:59;13.13;;;3.17;;
20970;SDS011;10644;48.834;10.088;2023-07-29T10:13:27;14.07;;;3.33;;
20970;SDS011;10644;48.834;10.088;2023-07-29T10:15:53;14.50;;;3.60;;
20970;SDS011;10644;48.834;10.088;2023-07-29T10:18:22;21.47;;;5.20;;
20970;SDS011;10644;48.834;10.088;2023-07-29T10:20:49;12.90;;;3.60;;
20970;SDS011;10644;48.834;10.088;2023-07-29T10:23:17;13.33;;;3.43;;
20970;SDS011;10644;48.834;10.088;2023-07-29T10:25:44;15.60;;;3.60;;
20970;SDS011;10644;48.834;10.088;2023-07-29T10:28:12;11.30;;;3.40;;
20970;SDS011;10644;48.834;10.088;2023-07-29T10:30:40;12.57;;;3.53;;
20970;SDS011;10644;48.834;10.088;2023-07-29T10:33:06;9.40;;;3.20;;
20970;SDS011;10644;48.834;10.088;2023-07-29T10:35:32;10.97;;;3.70;;
20970;SDS011;10644;48.834;10.088;2023-07-29T10:38:01;9.50;;;2.90;;
20970;SDS011;10644;48.834;10.088;2023-07-29T10:40:43;11.30;;;3.37;;
20970;SDS011;10644;48.834;10.088;2023-07-29T10:43:11;16.10;;;3.80;;
20970;SDS011;10644;48.834;10.088;2023-07-29T10:45:40;9.77;;;3.17;;
20970;SDS011;10644;48.834;10.088;2023-07-29T10:48:10;11.93;;;3.53;;
20970;SDS011;10644;48.834;10.088;2023-07-29T10:50:37;12.83;;;3.57;;
20970;SDS011;10644;48.834;10.088;2023-07-29T10:53:03;20.53;;;5.10;;
20970;SDS011;10644;48.834;10.088;2023-07-29T10:55:31;18.60;;;4.90;;
20970;SDS011;10644;48.834;10.088;2023-07-29T10:58:08;14.23;;;3.67;;
20970;SDS011;10644;48.834;10.088;2023-07-29T11:00:38;14.33;;;4.33;;
20970;SDS011;10644;48.834;10.088;2023-07-29T11:03:06;12.27;;;4.00;;
20970;SDS011;10644;48.834;10.088;2023-07-29T11:11:00;10.00;;;3.63;;
20970;SDS011;10644;48.834;10.088;2023-07-29T11:13:29;20.33;;;4.60;;
20970;SDS011;10644;48.834;10.088;2023-07-29T11:15:55;10.73;;;3.47;;
20970;SDS011;10644;48.834;10.088;2023-07-29T11:18:23;14.03;;;2.93;;
20970;SDS011;10644;48.834;10.088;2023-07-29T11:21:00;12.83;;;2.93;;
20970;SDS011;10644;48.834;10.088;2023-07-29T11:23:30;11.83;;;2.63;;
20970;SDS011;10644;48.834;10.088;2023-07-29T11:25:57;16.23;;;3.23;;
20970;SDS011;10644;48.834;10.088;2023-07-29T11:28:23;16.53;;;2.90;;
20970;SDS011;10644;48.834;10.088;2023-07-29T11:30:49;11.97;;;2.30;;
20970;SDS011;10644;48.834;10.088;2023-07-29T11:33:23;15.60;;;2.53;;
20970;SDS011;10644;48.834;10.088;2023-07-29T11:35:51;9.47;;;2.30;;
20970;SDS011;10644;48.834;10.088;2023-07-29T11:38:17;8.37;;;2.20;;
20970;SDS011;10644;48.834;10.088;2023-07-29T11:40:59;9.17;;;2.13;;
20970;SDS011;10644;48.834;10.088;2023-07-29T11:43:25;10.70;;;2.27;;
20970;SDS011;10644;48.834;10.088;2023-07-29T11:45:51;17.33;;;4.00;;
20970;SDS011;10644;48.834;10.088;2023-07-29T11:48:18;7.67;;;2.13;;
20970;SDS011;10644;48.834;10.088;2023-07-29T11:50:51;8.33;;;2.13;;
20970;SDS011;10644;48.834;10.088;2023-07-29T11:53:16;10.23;;;2.50;;
20970;SDS011;10644;48.834;10.088;2023-07-29T11:55:41;12.13;;;3.10;;
20970;SDS011;10644;48.834;10.088;2023-07-29T11:58:07;11.10;;;2.60;;
20970;SDS011;10644;48.834;10.088;2023-07-29T12:00:32;9.67;;;2.53;;
20970;SDS011;10644;48.834;10.088;2023-07-29T12:02:58;14.70;;;3.43;;
20970;SDS011;10644;48.834;10.088;2023-07-29T12:05:25;11.80;;;3.03;;
20970;SDS011;10644;48.834;10.088;2023-07-29T12:07:50;6.73;;;1.90;;
20970;SDS011;10644;48.834;10.088;2023-07-29T12:10:18;12.53;;;2.80;;
20970;SDS011;10644;48.834;10.088;2023-07-29T12:12:46;13.37;;;2.70;;
20970;SDS011;10644;48.834;10.088;2023-07-29T12:15:13;15.33;;;3.60;;
20970;SDS011;10644;48.834;10.088;2023-07-29T12:17:41;14.77;;;3.80;;
20970;SDS011;10644;48.834;10.088;2023-07-29T12:20:10;11.83;;;3.07;;
20970;SDS011;10644;48.834;10.088;2023-07-29T12:22:35;10.77;;;2.83;;
20970;SDS011;10644;48.834;10.088;2023-07-29T12:25:04;16.40;;;4.20;;
20970;SDS011;10644;48.834;10.088;2023-07-29T12:27:32;10.67;;;2.73;;
20970;SDS011;10644;48.834;10.088;2023-07-29T12:29:58;13.03;;;3.77;;
20970;SDS011;10644;48.834;10.088;2023-07-29T12:32:28;12.03;;;3.03;;
20970;SDS011;10644;48.834;10.088;2023-07-29T12:34:54;4.60;;;1.87;;
20970;SDS011;10644;48.834;10.088;2023-07-29T12:37:19;7.50;;;2.67;;
20970;SDS011;10644;48.834;10.088;2023-07-29T12:39:45;7.00;;;2.90;;
20970;SDS011;10644;48.834;10.088;2023-07-29T12:42:10;6.20;;;2.90;;
20970;SDS011;10644;48.834;10.088;2023-07-29T12:44:36;9.40;;;3.37;;
20970;SDS011;10644;48.834;10.088;2023-07-29T12:47:03;8.93;;;3.10;;
20970;SDS011;10644;48.834;10.088;2023-07-29T12:49:30;7.50;;;2.60;;
20970;SDS011;10644;48.834;10.088;2023-07-29T12:51:58;8.43;;;2.83;;
20970;SDS011;10644;48.834;10.088;2023-07-29T12:54:24;17.60;;;5.17;;
20970;SDS011;10644;48.834;10.088;2023-07-29T12:56:50;9.53;;;3.20;;
20970;SDS011;10644;48.834;10.088;2023-07-29T12:59:15;8.53;;;2.97;;
20970;SDS011;10644;48.834;10.088;2023-07-29T13:01:41;12.87;;;2.87;;
20970;SDS011;10644;48.834;10.088;2023-07-29T13:04:06;6.40;;;2.70;;
20970;SDS011;10644;48.834;10.088;2023-07-29T13:06:31;10.03;;;3.20;;
20970;SDS011;10644;48.834;10.088;2023-07-29T13:08:57;7.13;;;3.03;;
20970;SDS011;10644;48.834;10.088;2023-07-29T13:11:22;9.70;;;3.60;;
20970;SDS011;10644;48.834;10.088;2023-07-29T13:13:47;11.00;;;3.57;;
20970;SDS011;10644;48.834;10.088;2023-07-29T13:16:13;6.40;;;3.07;;
20970;SDS011;10644;48.834;10.088;2023-07-29T13:18:38;9.60;;;3.90;;
20970;SDS011;10644;48.834;10.088;2023-07-29T13:21:04;12.17;;;4.57;;
20970;SDS011;10644;48.834;10.088;2023-07-29T13:23:29;8.37;;;3.60;;
20970;SDS011;10644;48.834;10.088;2023-07-29T13:25:55;13.40;;;5.00;;
20970;SDS011;10644;48.834;10.088;2023-07-29T13:28:21;9.77;;;3.57;;
20970;SDS011;10644;48.834;10.088;2023-07-29T13:30:46;7.57;;;3.13;;
20970;SDS011;10644;48.834;10.088;2023-07-29T13:33:12;12.17;;;4.30;;
20970;SDS011;10644;48.834;10.088;2023-07-29T13:35:37;8.87;;;3.50;;
20970;SDS011;10644;48.834;10.088;2023-07-29T13:38:03;5.57;;;2.60;;
20970;SDS011;10644;48.834;10.088;2023-07-29T13:40:31;9.13;;;3.70;;
20970;SDS011;10644;48.834;10.088;2023-07-29T13:42:56;6.87;;;2.87;;
20970;SDS011;10644;48.834;10.088;2023-07-29T13:45:24;9.80;;;3.30;;
20970;SDS011;10644;48.834;10.088;2023-07-29T13:47:50;10.30;;;3.90;;
20970;SDS011;10644;48.834;10.088;2023-07-29T13:50:15;7.80;;;3.67;;
20970;SDS011;10644;48.834;10.088;2023-07-29T13:52:41;10.30;;;4.20;;
20970;SDS011;10644;48.834;10.088;2023-07-29T13:55:06;6.33;;;3.07;;
20970;SDS011;10644;48.834;10.088;2023-07-29T13:57:32;6.90;;;3.17;;
20970;SDS011;10644;48.834;10.088;2023-07-29T13:59:57;12.30;;;4.80;;
20970;SDS011;10644;48.834;10.088;2023-07-29T14:02:23;8.83;;;3.60;;
20970;SDS011;10644;48.834;10.088;2023-07-29T14:04:49;8.57;;;3.67;;
20970;SDS011;10644;48.834;10.088;2023-07-29T14:07:14;8.10;;;3.80;;
20970;SDS011;10644;48.834;10.088;2023-07-29T14:09:39;7.33;;;4.03;;
20970;SDS011;10644;48.834;10.088;2023-07-29T14:12:05;7.13;;;3.33;;
20970;SDS011;10644;48.834;10.088;2023-07-29T14:14:31;9.23;;;3.93;;
20970;SDS011;10644;48.834;10.088;2023-07-29T14:16:56;10.27;;;4.00;;
20970;SDS011;10644;48.834;10.088;2023-07-29T14:19:22;6.83;;;3.20;;
20970;SDS011;10644;48.834;10.088;2023-07-29T14:21:48;9.40;;;4.00;;
20970;SDS011;10644;48.834;10.088;2023-07-29T14:24:14;11.67;;;4.47;;
20970;SDS011;10644;48.834;10.088;2023-07-29T14:26:40;9.87;;;3.37;;
20970;SDS011;10644;48.834;10.088;2023-07-29T14:29:06;8.30;;;3.37;;
20970;SDS011;10644;48.834;10.088;2023-07-29T14:31:31;8.10;;;3.30;;
20970;SDS011;10644;48.834;10.088;2023-07-29T14:33:56;8.17;;;3.57;;